createdAt,value
2017-09-21T00:00:52.430Z,83.04
2017-09-21T00:03:19.835Z,83.17
2017-09-21T00:05:47.235Z,82.90
2017-09-21T00:08:14.743Z,82.92
2017-09-21T00:10:42.142Z,83.12
2017-09-21T00:13:09.542Z,82.99
2017-09-21T00:15:36.946Z,83.12
2017-09-21T00:18:04.346Z,83.37
2017-09-21T00:20:32.073Z,83.30
2017-09-21T00:22:59.502Z,83.09
2017-09-21T00:25:26.902Z,83.30
2017-09-21T00:27:54.311Z,83.56
2017-09-21T00:30:21.706Z,83.40
2017-09-21T00:32:49.217Z,83.50
2017-09-21T00:35:16.611Z,83.75
2017-09-21T00:37:44.008Z,84.01
2017-09-21T00:40:11.402Z,84.13
2017-09-21T00:42:38.798Z,84.15
2017-09-21T00:45:06.215Z,84.35
2017-09-21T00:47:33.611Z,84.49
2017-09-21T00:50:01.007Z,84.57
2017-09-21T00:52:28.412Z,84.69
2017-09-21T00:54:55.810Z,84.64
2017-09-21T00:57:23.367Z,84.82
2017-09-21T00:59:50.758Z,84.96
2017-09-21T01:02:18.154Z,85.04
2017-09-21T01:04:45.558Z,85.10
2017-09-21T01:07:12.982Z,85.21
2017-09-21T01:09:40.383Z,85.24
2017-09-21T01:12:07.783Z,85.35
2017-09-21T01:14:35.180Z,85.30
2017-09-21T01:17:02.587Z,85.42
2017-09-21T01:19:29.983Z,85.49
2017-09-21T01:21:57.419Z,85.68
2017-09-21T01:24:25.673Z,85.84
2017-09-21T01:26:53.062Z,85.91
2017-09-21T01:29:20.462Z,86.05
2017-09-21T01:31:47.859Z,86.23
2017-09-21T01:34:15.411Z,86.37
2017-09-21T01:36:42.813Z,86.62
2017-09-21T01:39:10.198Z,86.63
2017-09-21T01:41:37.598Z,86.77
2017-09-21T01:44:04.995Z,86.77
2017-09-21T01:46:32.426Z,86.95
2017-09-21T01:48:59.827Z,87.04
2017-09-21T01:51:27.222Z,87.16
2017-09-21T01:53:54.622Z,87.19
2017-09-21T01:56:22.019Z,87.36
2017-09-21T01:58:49.427Z,87.43
2017-09-21T02:01:16.827Z,87.52
2017-09-21T02:03:44.227Z,87.74
2017-09-21T02:06:11.626Z,87.65
2017-09-21T02:08:39.024Z,87.63
2017-09-21T02:11:06.438Z,87.72
2017-09-21T02:13:33.826Z,87.72
2017-09-21T02:16:01.223Z,87.84
2017-09-21T02:18:28.626Z,87.83
2017-09-21T02:20:56.023Z,87.91
2017-09-21T02:23:23.424Z,87.95
2017-09-21T02:25:50.830Z,88.01
2017-09-21T02:28:18.232Z,88.02
2017-09-21T02:30:45.638Z,88.17
2017-09-21T02:33:13.036Z,88.08
2017-09-21T02:35:40.431Z,88.16
2017-09-21T02:38:07.834Z,88.25
2017-09-21T02:40:35.232Z,88.30
2017-09-21T02:43:02.627Z,88.33
2017-09-21T02:45:30.031Z,88.24
2017-09-21T02:47:57.430Z,88.37
2017-09-21T02:50:24.843Z,88.47
2017-09-21T02:52:52.246Z,88.60
2017-09-21T02:55:19.642Z,88.58
2017-09-21T02:57:47.038Z,88.61
2017-09-21T03:00:14.442Z,88.46
2017-09-21T03:02:41.839Z,88.50
2017-09-21T03:05:09.239Z,88.70
2017-09-21T03:07:36.642Z,88.86
2017-09-21T03:10:04.043Z,88.70
2017-09-21T03:12:31.446Z,88.84
2017-09-21T03:14:58.851Z,88.90
2017-09-21T03:17:26.250Z,89.03
2017-09-21T03:19:53.652Z,88.94
2017-09-21T03:22:21.051Z,89.04
2017-09-21T03:24:48.458Z,88.98
2017-09-21T03:27:15.864Z,88.97
2017-09-21T03:29:43.262Z,88.96
2017-09-21T03:32:10.968Z,89.19
2017-09-21T03:34:38.364Z,88.93
2017-09-21T03:37:05.762Z,89.00
2017-09-21T03:39:33.177Z,89.05
2017-09-21T03:42:00.570Z,88.99
2017-09-21T03:44:27.975Z,89.07
2017-09-21T03:46:55.533Z,88.95
2017-09-21T03:49:22.926Z,89.05
2017-09-21T03:51:50.323Z,89.05
2017-09-21T03:54:17.755Z,89.17
2017-09-21T03:56:45.155Z,89.10
2017-09-21T03:59:12.551Z,88.83
2017-09-21T04:01:39.951Z,88.95
2017-09-21T04:04:07.342Z,89.00
2017-09-21T04:06:34.907Z,88.98
2017-09-21T04:09:02.306Z,89.01
2017-09-21T04:11:29.711Z,89.03
2017-09-21T04:13:57.120Z,89.03
2017-09-21T04:16:24.510Z,89.20
2017-09-21T04:18:52.070Z,89.40
2017-09-21T04:21:19.480Z,89.43
2017-09-21T04:23:46.875Z,89.57
2017-09-21T04:26:14.290Z,89.44
2017-09-21T04:28:41.682Z,89.38
2017-09-21T04:31:09.447Z,89.74
2017-09-21T04:33:36.843Z,89.72
2017-09-21T04:36:04.243Z,89.56
2017-09-21T04:38:31.647Z,89.57
2017-09-21T04:40:59.043Z,89.53
2017-09-21T04:43:27.563Z,89.42
2017-09-21T04:45:54.968Z,89.35
2017-09-21T04:48:22.354Z,89.42
2017-09-21T04:50:49.755Z,89.54
2017-09-21T04:53:17.150Z,89.48
2017-09-21T04:55:44.711Z,89.52
2017-09-21T04:58:12.375Z,89.37
2017-09-21T05:00:39.767Z,89.48
2017-09-21T05:03:08.015Z,89.54
2017-09-21T05:05:35.414Z,89.65
2017-09-21T05:08:02.966Z,89.69
2017-09-21T05:10:30.378Z,89.61
2017-09-21T05:12:57.780Z,89.73
2017-09-21T05:15:25.198Z,89.46
2017-09-21T05:17:52.595Z,89.21
2017-09-21T05:20:20.011Z,89.24
2017-09-21T05:22:47.402Z,89.03
2017-09-21T05:25:14.816Z,89.06
2017-09-21T05:27:42.206Z,89.02
2017-09-21T05:30:09.606Z,89.05
2017-09-21T05:32:37.515Z,89.12
2017-09-21T05:35:04.920Z,89.24
2017-09-21T05:37:32.315Z,89.24
2017-09-21T05:39:59.718Z,89.33
2017-09-21T05:42:27.119Z,89.48
2017-09-21T05:44:55.496Z,89.59
2017-09-21T05:47:22.898Z,89.54
2017-09-21T05:49:50.295Z,89.40
2017-09-21T05:52:17.709Z,89.37
2017-09-21T05:54:45.106Z,89.35
2017-09-21T05:57:12.558Z,89.33
2017-09-21T05:59:39.971Z,89.29
2017-09-21T06:02:07.375Z,89.22
2017-09-21T06:04:34.778Z,89.34
2017-09-21T06:07:02.173Z,89.35
2017-09-21T06:09:30.086Z,89.39
2017-09-21T06:11:57.487Z,89.46
2017-09-21T06:14:24.887Z,89.50
2017-09-21T06:16:52.287Z,89.53
2017-09-21T06:19:19.686Z,89.52
2017-09-21T06:21:47.574Z,89.58
2017-09-21T06:24:14.987Z,89.59
2017-09-21T06:26:42.378Z,89.29
2017-09-21T06:29:09.787Z,89.50
2017-09-21T06:31:37.187Z,89.52
2017-09-21T06:34:04.618Z,89.53
2017-09-21T06:36:32.019Z,89.49
2017-09-21T06:38:59.410Z,89.54
2017-09-21T06:41:26.814Z,89.40
2017-09-21T06:43:54.214Z,89.26
2017-09-21T06:46:21.759Z,89.26
2017-09-21T06:48:49.155Z,89.22
2017-09-21T06:51:16.550Z,88.94
2017-09-21T06:53:43.954Z,88.72
2017-09-21T06:56:11.351Z,88.47
2017-09-21T06:58:38.778Z,88.51
2017-09-21T07:01:06.171Z,88.61
2017-09-21T07:03:33.571Z,88.76
2017-09-21T07:06:00.975Z,88.19
2017-09-21T07:08:28.367Z,88.37
2017-09-21T07:10:55.790Z,88.24
2017-09-21T07:13:23.181Z,87.36
2017-09-21T07:15:50.574Z,87.41
2017-09-21T07:18:17.987Z,87.48
2017-09-21T07:20:45.379Z,87.56
2017-09-21T07:23:12.940Z,87.57
2017-09-21T07:25:40.334Z,87.68
2017-09-21T07:28:07.731Z,87.92
2017-09-21T07:30:35.138Z,88.12
2017-09-21T07:33:02.546Z,87.71
2017-09-21T07:35:29.943Z,87.42
2017-09-21T07:37:57.334Z,87.30
2017-09-21T07:40:24.735Z,87.07
2017-09-21T07:42:52.136Z,86.96
2017-09-21T07:45:19.683Z,86.07
2017-09-21T07:47:47.080Z,84.46
2017-09-21T07:50:14.478Z,84.23
2017-09-21T07:52:41.879Z,85.05
2017-09-21T07:55:09.274Z,85.21
2017-09-21T07:57:36.702Z,85.01
2017-09-21T08:00:04.139Z,85.00
2017-09-21T08:02:31.541Z,84.29
2017-09-21T08:04:58.946Z,84.34
2017-09-21T08:07:26.346Z,83.67
2017-09-21T08:09:53.754Z,83.81
2017-09-21T08:12:21.199Z,83.58
2017-09-21T08:14:48.598Z,82.56
2017-09-21T08:17:16.015Z,82.51
2017-09-21T08:19:43.426Z,82.80
2017-09-21T08:22:10.852Z,82.39
2017-09-21T08:24:38.246Z,81.04
2017-09-21T08:27:05.647Z,81.70
2017-09-21T08:29:33.047Z,81.31
2017-09-21T08:32:00.448Z,82.01
2017-09-21T08:34:27.994Z,82.20
2017-09-21T08:36:55.391Z,80.70
2017-09-21T08:39:22.794Z,79.38
2017-09-21T08:41:50.199Z,78.85
2017-09-21T08:44:17.600Z,77.75
2017-09-21T08:46:45.515Z,78.70
2017-09-21T08:49:12.918Z,76.30
2017-09-21T08:51:40.320Z,78.11
2017-09-21T08:54:07.722Z,76.91
2017-09-21T08:56:35.125Z,75.56
2017-09-21T08:59:02.678Z,70.65
2017-09-21T09:01:30.071Z,72.47
2017-09-21T09:03:57.471Z,72.50
2017-09-21T09:06:24.876Z,72.28
2017-09-21T09:08:52.317Z,68.31
2017-09-21T09:11:19.854Z,69.06
2017-09-21T09:13:47.247Z,66.60
2017-09-21T09:16:14.634Z,66.65
2017-09-21T09:18:42.030Z,66.73
2017-09-21T09:21:09.423Z,64.69
2017-09-21T09:23:36.967Z,64.05
2017-09-21T09:26:04.359Z,64.68
2017-09-21T09:28:31.749Z,64.47
2017-09-21T09:30:59.150Z,62.07
2017-09-21T09:33:26.534Z,58.45
2017-09-21T09:35:54.102Z,58.71
2017-09-21T09:38:21.491Z,59.19
2017-09-21T09:40:48.878Z,57.74
2017-09-21T09:43:16.275Z,55.41
2017-09-21T09:45:43.663Z,53.55
2017-09-21T09:48:11.092Z,53.35
2017-09-21T09:50:38.475Z,53.98
2017-09-21T09:53:05.871Z,55.74
2017-09-21T09:55:33.274Z,56.08
2017-09-21T09:58:00.668Z,53.29
2017-09-21T10:00:28.210Z,54.62
2017-09-21T10:02:55.600Z,51.12
2017-09-21T10:05:22.986Z,51.40
2017-09-21T10:07:50.388Z,49.56
2017-09-21T10:10:17.779Z,47.83
2017-09-21T10:12:45.322Z,44.60
2017-09-21T10:15:12.711Z,45.70
2017-09-21T10:17:40.102Z,47.79
2017-09-21T10:20:07.499Z,47.36
2017-09-21T10:22:34.890Z,48.08
2017-09-21T10:25:02.291Z,47.40
2017-09-21T10:27:29.683Z,47.24
2017-09-21T10:29:57.087Z,48.23
2017-09-21T10:32:24.480Z,48.25
2017-09-21T10:34:51.868Z,47.77
2017-09-21T10:37:19.254Z,43.34
2017-09-21T10:39:46.641Z,45.21
2017-09-21T10:42:14.070Z,45.82
2017-09-21T10:44:41.463Z,43.11
2017-09-21T10:47:09.232Z,43.12
2017-09-21T10:49:37.907Z,42.76
2017-09-21T10:52:05.297Z,42.20
2017-09-21T10:54:32.713Z,44.04
2017-09-21T10:57:00.103Z,45.12
2017-09-21T10:59:27.494Z,44.48
2017-09-21T11:01:54.890Z,41.95
2017-09-21T11:04:22.286Z,42.04
2017-09-21T11:06:49.830Z,42.17
2017-09-21T11:09:17.231Z,44.82
2017-09-21T11:11:44.623Z,44.37
2017-09-21T11:14:13.019Z,42.58
2017-09-21T11:16:40.410Z,42.26
2017-09-21T11:19:07.963Z,42.15
2017-09-21T11:21:35.350Z,39.94
2017-09-21T11:24:02.742Z,39.88
2017-09-21T11:26:30.135Z,42.07
2017-09-21T11:28:57.523Z,42.75
2017-09-21T11:31:25.223Z,42.00
2017-09-21T11:33:52.614Z,42.64
2017-09-21T11:36:20.002Z,43.21
2017-09-21T11:38:47.398Z,41.66
2017-09-21T11:41:14.790Z,40.22
2017-09-21T11:43:42.223Z,40.04
2017-09-21T11:46:09.607Z,41.04
2017-09-21T11:48:36.995Z,41.68
2017-09-21T11:51:04.395Z,44.29
2017-09-21T11:53:31.788Z,42.14
2017-09-21T11:55:59.882Z,42.29
2017-09-21T11:58:27.278Z,42.86
2017-09-21T12:00:54.671Z,43.14
2017-09-21T12:03:22.070Z,42.93
2017-09-21T12:05:49.466Z,42.54
2017-09-21T12:08:16.856Z,39.16
2017-09-21T12:10:44.418Z,39.69
2017-09-21T12:13:11.811Z,39.09
2017-09-21T12:15:39.202Z,41.73
2017-09-21T12:18:06.598Z,42.07
2017-09-21T12:20:33.980Z,38.58
2017-09-21T12:23:01.399Z,39.32
2017-09-21T12:25:28.790Z,39.47
2017-09-21T12:27:56.170Z,37.57
2017-09-21T12:30:23.568Z,41.14
2017-09-21T12:32:50.964Z,39.25
2017-09-21T12:35:18.623Z,43.78
2017-09-21T12:37:46.016Z,39.63
2017-09-21T12:40:13.407Z,40.44
2017-09-21T12:42:40.807Z,39.69
2017-09-21T12:45:08.201Z,42.62
2017-09-21T12:47:35.626Z,40.85
2017-09-21T12:50:03.016Z,39.12
2017-09-21T12:52:30.411Z,39.31
2017-09-21T12:54:57.820Z,40.75
2017-09-21T12:57:25.206Z,40.22
2017-09-21T12:59:52.629Z,40.94
2017-09-21T13:02:20.025Z,41.54
2017-09-21T13:04:47.408Z,42.82
2017-09-21T13:07:14.811Z,39.47
2017-09-21T13:09:42.192Z,39.39
2017-09-21T13:12:09.599Z,41.50
2017-09-21T13:14:36.987Z,39.81
2017-09-21T13:17:04.374Z,40.92
2017-09-21T13:19:31.770Z,45.37
2017-09-21T13:21:59.163Z,41.86
2017-09-21T13:24:26.969Z,39.07
2017-09-21T13:26:54.355Z,41.95
2017-09-21T13:29:21.748Z,44.25
2017-09-21T13:31:49.139Z,42.18
2017-09-21T13:34:16.527Z,45.57
2017-09-21T13:36:44.030Z,41.58
2017-09-21T13:39:11.419Z,40.32
2017-09-21T13:41:38.819Z,43.68
2017-09-21T13:44:06.219Z,42.98
2017-09-21T13:46:33.614Z,45.14
2017-09-21T13:49:01.160Z,44.67
2017-09-21T13:51:28.547Z,43.90
2017-09-21T13:53:55.945Z,42.83
2017-09-21T13:56:23.333Z,45.68
2017-09-21T13:58:50.731Z,43.19
2017-09-21T14:01:18.518Z,42.82
2017-09-21T14:03:45.910Z,44.46
2017-09-21T14:06:13.340Z,47.24
2017-09-21T14:08:40.730Z,45.11
2017-09-21T14:11:08.123Z,44.74
2017-09-21T14:13:35.515Z,46.89
2017-09-21T14:16:03.827Z,47.67
2017-09-21T14:18:31.383Z,47.60
2017-09-21T14:20:58.776Z,49.05
2017-09-21T14:23:26.172Z,46.24
2017-09-21T14:25:53.567Z,46.67
2017-09-21T14:28:20.954Z,47.39
2017-09-21T14:30:48.826Z,48.35
2017-09-21T14:33:16.236Z,49.98
2017-09-21T14:35:43.622Z,50.09
2017-09-21T14:38:11.023Z,45.40
2017-09-21T14:40:38.419Z,47.65
2017-09-21T14:43:06.043Z,49.02
2017-09-21T14:45:33.679Z,50.28
2017-09-21T14:48:01.066Z,48.52
2017-09-21T14:50:28.483Z,49.58
2017-09-21T14:52:58.399Z,47.53
2017-09-21T14:55:29.394Z,45.96
2017-09-21T14:57:56.783Z,48.03
2017-09-21T15:00:24.180Z,48.18
2017-09-21T15:02:51.585Z,47.54
2017-09-21T15:05:18.971Z,50.21
2017-09-21T15:07:46.635Z,47.50
2017-09-21T15:10:14.687Z,47.82
2017-09-21T15:12:42.992Z,48.88
2017-09-21T15:15:10.385Z,49.67
2017-09-21T15:17:37.771Z,49.67
2017-09-21T15:20:06.190Z,51.68
2017-09-21T15:22:33.575Z,48.91
2017-09-21T15:25:09.200Z,49.19
2017-09-21T15:27:36.583Z,49.54
2017-09-21T15:30:03.977Z,50.38
2017-09-21T15:32:31.358Z,49.91
2017-09-21T15:34:58.752Z,48.01
2017-09-21T15:37:26.162Z,49.80
2017-09-21T15:39:53.553Z,50.93
2017-09-21T15:42:20.966Z,51.85
2017-09-21T15:44:48.356Z,52.15
2017-09-21T15:47:16.458Z,52.66
2017-09-21T15:49:43.881Z,52.78
2017-09-21T15:52:11.294Z,52.89
2017-09-21T15:54:38.679Z,51.71
2017-09-21T15:57:06.082Z,52.88
2017-09-21T15:59:33.478Z,52.96
2017-09-21T16:02:00.914Z,53.96
2017-09-21T16:04:28.312Z,55.46
2017-09-21T16:06:55.700Z,55.57
2017-09-21T16:09:23.129Z,56.51
2017-09-21T16:11:50.514Z,56.95
2017-09-21T16:14:18.054Z,56.92
2017-09-21T16:16:45.451Z,57.61
2017-09-21T16:19:12.839Z,56.35
2017-09-21T16:21:40.242Z,56.00
2017-09-21T16:24:07.634Z,56.24
2017-09-21T16:26:35.174Z,56.76
2017-09-21T16:29:02.561Z,58.37
2017-09-21T16:31:29.950Z,57.83
2017-09-21T16:33:57.371Z,59.10
2017-09-21T16:36:24.755Z,59.36
2017-09-21T16:38:52.178Z,59.53
2017-09-21T16:41:19.579Z,61.12
2017-09-21T16:43:46.975Z,62.21
2017-09-21T16:46:15.335Z,61.57
2017-09-21T16:48:43.750Z,62.21
2017-09-21T16:51:11.251Z,61.21
2017-09-21T16:53:38.639Z,62.07
2017-09-21T16:56:06.096Z,62.85
2017-09-21T16:58:33.493Z,63.06
2017-09-21T17:01:01.977Z,63.20
2017-09-21T17:03:29.404Z,63.41
2017-09-21T17:05:56.787Z,63.33
2017-09-21T17:08:24.175Z,62.96
2017-09-21T17:10:51.573Z,63.19
2017-09-21T17:13:18.962Z,63.72
2017-09-21T17:15:46.510Z,63.67
2017-09-21T17:18:13.898Z,64.64
2017-09-21T17:20:41.282Z,65.01
2017-09-21T17:23:08.679Z,65.40
2017-09-21T17:25:36.071Z,65.44
2017-09-21T17:28:03.578Z,65.47
2017-09-21T17:30:30.968Z,66.30
2017-09-21T17:32:58.476Z,66.47
2017-09-21T17:35:25.863Z,67.30
2017-09-21T17:37:53.252Z,67.01
2017-09-21T17:40:20.642Z,67.85
2017-09-21T17:42:48.031Z,67.52
2017-09-21T17:45:15.451Z,67.59
2017-09-21T17:47:42.841Z,67.92
2017-09-21T17:50:10.231Z,68.16
2017-09-21T17:52:37.618Z,68.48
2017-09-21T17:55:05.007Z,68.76
2017-09-21T17:57:32.402Z,69.72
2017-09-21T17:59:59.795Z,69.92
2017-09-21T18:02:27.343Z,69.86
2017-09-21T18:04:54.736Z,69.77
2017-09-21T18:07:22.139Z,69.93
2017-09-21T18:09:49.530Z,70.09
2017-09-21T18:12:16.951Z,70.40
2017-09-21T18:14:44.367Z,70.72
2017-09-21T18:17:12.095Z,70.71
2017-09-21T18:19:39.650Z,71.20
2017-09-21T18:22:07.034Z,71.04
2017-09-21T18:24:34.423Z,71.51
2017-09-21T18:27:01.822Z,71.71
2017-09-21T18:29:29.212Z,71.78
2017-09-21T18:31:57.674Z,71.76
2017-09-21T18:34:25.698Z,71.73
2017-09-21T18:36:53.141Z,72.05
2017-09-21T18:39:23.194Z,72.54
2017-09-21T18:41:50.598Z,72.60
2017-09-21T18:44:18.011Z,72.87
2017-09-21T18:46:45.414Z,72.73
2017-09-21T18:49:12.926Z,72.63
2017-09-21T18:51:40.321Z,73.17
2017-09-21T18:54:07.712Z,73.41
2017-09-21T18:56:35.426Z,73.40
2017-09-21T18:59:02.819Z,73.77
2017-09-21T19:01:30.256Z,73.79
2017-09-21T19:03:57.640Z,74.45
2017-09-21T19:06:25.200Z,74.29
2017-09-21T19:08:52.595Z,74.26
2017-09-21T19:11:20.008Z,74.50
2017-09-21T19:13:47.400Z,74.00
2017-09-21T19:16:15.439Z,74.15
2017-09-21T19:18:42.829Z,74.34
2017-09-21T19:21:10.223Z,74.31
2017-09-21T19:23:37.624Z,74.60
2017-09-21T19:26:08.866Z,74.72
2017-09-21T19:28:36.266Z,74.85
2017-09-21T19:31:03.667Z,75.15
2017-09-21T19:33:31.054Z,75.36
2017-09-21T19:35:58.470Z,75.60
2017-09-21T19:38:25.863Z,75.44
2017-09-21T19:40:53.291Z,75.51
2017-09-21T19:43:20.686Z,75.35
2017-09-21T19:45:48.332Z,75.60
2017-09-21T19:48:15.734Z,75.75
2017-09-21T19:50:43.127Z,75.91
2017-09-21T19:53:10.527Z,75.60
2017-09-21T19:55:37.923Z,75.71
2017-09-21T19:58:05.479Z,76.32
2017-09-21T20:00:32.879Z,75.92
2017-09-21T20:03:00.286Z,75.86
2017-09-21T20:05:27.695Z,75.95
2017-09-21T20:07:55.086Z,76.45
2017-09-21T20:10:22.487Z,76.37
2017-09-21T20:12:49.886Z,76.34
2017-09-21T20:15:17.295Z,76.53
2017-09-21T20:17:44.700Z,76.60
2017-09-21T20:20:12.095Z,76.92
2017-09-21T20:22:39.498Z,77.06
2017-09-21T20:25:06.894Z,77.12
2017-09-21T20:27:34.295Z,77.48
2017-09-21T20:30:01.691Z,77.37
2017-09-21T20:32:29.086Z,77.25
2017-09-21T20:34:56.487Z,77.32
2017-09-21T20:37:23.887Z,77.37
2017-09-21T20:39:51.442Z,77.53
2017-09-21T20:42:18.843Z,77.29
2017-09-21T20:44:46.243Z,77.35
2017-09-21T20:47:13.647Z,77.73
2017-09-21T20:49:41.047Z,77.51
2017-09-21T20:52:08.455Z,77.66
2017-09-21T20:54:35.865Z,77.58
2017-09-21T20:57:03.526Z,77.76
2017-09-21T20:59:30.935Z,77.72
2017-09-21T21:01:58.386Z,77.53
2017-09-21T21:04:25.792Z,77.77
2017-09-21T21:06:53.186Z,77.81
2017-09-21T21:09:20.587Z,78.14
2017-09-21T21:11:47.993Z,77.94
2017-09-21T21:14:15.601Z,78.18
2017-09-21T21:16:42.998Z,78.20
2017-09-21T21:19:10.405Z,78.24
2017-09-21T21:21:37.795Z,78.19
2017-09-21T21:24:05.200Z,78.40
2017-09-21T21:26:32.596Z,78.52
2017-09-21T21:28:59.991Z,78.74
2017-09-21T21:31:27.550Z,78.86
2017-09-21T21:33:54.945Z,78.85
2017-09-21T21:36:22.343Z,79.03
2017-09-21T21:38:49.751Z,79.10
2017-09-21T21:41:17.146Z,79.13
2017-09-21T21:43:44.551Z,79.31
2017-09-21T21:46:11.945Z,79.27
2017-09-21T21:48:39.451Z,79.27
2017-09-21T21:51:06.856Z,79.55
2017-09-21T21:53:34.254Z,79.57
2017-09-21T21:56:01.659Z,79.58
2017-09-21T21:58:29.055Z,79.72
2017-09-21T22:00:57.260Z,79.87
2017-09-21T22:03:24.650Z,79.97
2017-09-21T22:05:52.046Z,80.21
2017-09-21T22:08:19.451Z,80.35
2017-09-21T22:10:46.854Z,80.49
2017-09-21T22:13:14.286Z,80.57
2017-09-21T22:15:41.691Z,80.72
2017-09-21T22:18:09.090Z,80.90
2017-09-21T22:20:36.494Z,80.89
2017-09-21T22:23:03.886Z,80.90
2017-09-21T22:25:31.294Z,80.99
2017-09-21T22:27:58.686Z,81.15
2017-09-21T22:30:26.239Z,81.10
2017-09-21T22:32:53.636Z,81.18
2017-09-21T22:35:21.031Z,81.11
2017-09-21T22:37:48.434Z,81.18
2017-09-21T22:40:15.843Z,80.96
2017-09-21T22:42:43.251Z,81.00
2017-09-21T22:45:10.650Z,80.78
2017-09-21T22:47:38.262Z,80.82
2017-09-21T22:50:05.666Z,80.80
2017-09-21T22:52:33.062Z,80.85
2017-09-21T22:55:00.472Z,80.80
2017-09-21T22:57:27.864Z,80.73
2017-09-21T22:59:55.272Z,80.74
2017-09-21T23:02:22.668Z,80.79
2017-09-21T23:04:50.102Z,80.64
2017-09-21T23:07:17.498Z,80.61
2017-09-21T23:09:44.903Z,80.83
2017-09-21T23:12:12.302Z,80.32
2017-09-21T23:14:39.706Z,80.55
2017-09-21T23:17:07.111Z,80.68
2017-09-21T23:19:34.511Z,80.87
2017-09-21T23:22:02.063Z,80.68
2017-09-21T23:24:29.466Z,80.77
2017-09-21T23:26:56.864Z,80.63
2017-09-21T23:29:24.267Z,80.79
2017-09-21T23:31:51.671Z,80.90
2017-09-21T23:34:19.070Z,80.84
2017-09-21T23:36:46.478Z,80.82
2017-09-21T23:39:14.056Z,80.85
2017-09-21T23:41:41.447Z,80.87
2017-09-21T23:44:08.847Z,80.90
2017-09-21T23:46:36.246Z,81.08
2017-09-21T23:49:03.646Z,81.20
2017-09-21T23:51:31.049Z,81.24
2017-09-21T23:53:58.443Z,81.29
2017-09-21T23:56:26.046Z,81.46
2017-09-21T23:58:53.447Z,81.54
